Time;durP1;ratioP1;P1;durP2;ratioP2;P2;SDS_P1;SDS_P2;PMS_P1;PMS_P2;Temp;Humidity;BMP_temperature;BMP_pressure;BME280_temperature;BME280_humidity;BME280_pressure;Samples;Min_cycle;Max_cycle;Signal;HPM_P1;HPM_P2
2022/08/10 00:00:21;;;;;;;2.05;1.50;;;;;;;21.56;46.49;99251.72;4182174;28;20533;-61
2022/08/10 00:02:23;;;;;;;1.88;0.90;;;;;;;21.54;46.18;99254.00;4189401;28;20252;-62
2022/08/10 00:04:25;;;;;;;1.63;1.20;;;;;;;21.47;46.27;99257.19;4187696;28;20215;-62
2022/08/10 00:06:27;;;;;;;1.30;1.20;;;;;;;21.43;46.55;99253.34;4187029;28;20236;-62
2022/08/10 00:08:28;;;;;;;3.83;1.73;;;;;;;21.43;46.47;99253.34;4186435;28;20229;-61
2022/08/10 00:10:30;;;;;;;2.15;1.52;;;;;;;21.39;46.76;99245.91;4200618;28;20230;-61
2022/08/10 00:12:32;;;;;;;3.20;1.63;;;;;;;21.36;46.84;99254.84;4176027;28;20300;-61
2022/08/10 00:14:54;;;;;;;2.42;1.15;;;;;;;21.33;46.75;99245.16;4181009;28;20265;-61
2022/08/10 00:16:56;;;;;;;1.30;1.20;;;;;;;21.27;47.19;99253.88;4180639;28;20285;-61
2022/08/10 00:18:57;;;;;;;1.73;1.02;;;;;;;21.18;47.48;99247.34;4184098;28;20726;-61
2022/08/10 00:21:00;;;;;;;5.63;1.20;;;;;;;21.12;47.72;99251.31;4181693;28;20199;-61
2022/08/10 00:23:02;;;;;;;2.75;1.88;;;;;;;21.04;48.25;99246.44;4167962;28;20647;-61
2022/08/10 00:25:05;;;;;;;1.50;1.40;;;;;;;21.00;48.58;99242.59;4178001;28;20226;-61
2022/08/10 00:27:07;;;;;;;1.30;1.17;;;;;;;20.92;48.63;99248.81;4165105;28;20266;-61
2022/08/10 00:29:29;;;;;;;2.95;1.20;;;;;;;20.85;48.89;99245.56;4170614;28;20203;-61
2022/08/10 00:31:31;;;;;;;6.53;1.08;;;;;;;20.83;48.64;99242.22;4183452;28;20747;-61
2022/08/10 00:33:52;;;;;;;2.08;1.50;;;;;;;20.78;48.50;99245.09;4182386;28;20203;-61
2022/08/10 00:35:54;;;;;;;1.63;1.20;;;;;;;20.80;48.43;99248.38;4169267;28;20208;-61
2022/08/10 00:37:56;;;;;;;1.92;1.20;;;;;;;20.76;48.70;99247.31;4189294;28;20206;-61
2022/08/10 00:39:58;;;;;;;1.40;1.30;;;;;;;20.71;48.71;99250.19;4183963;28;20282;-61
2022/08/10 00:42:00;;;;;;;3.47;1.67;;;;;;;20.69;48.48;99246.84;4180322;28;20232;-62
2022/08/10 00:44:08;;;;;;;2.40;1.10;;;;;;;20.65;48.88;99246.63;4183290;28;20742;-61
2022/08/10 00:46:10;;;;;;;1.20;1.10;;;;;;;20.60;48.94;99243.94;4188540;28;20268;-61
2022/08/10 00:48:11;;;;;;;7.65;1.35;;;;;;;20.52;49.82;99243.75;4185344;28;20203;-61
2022/08/10 00:50:16;;;;;;;1.40;1.10;;;;;;;20.44;49.80;99250.78;4190052;28;20261;-61
2022/08/10 00:52:19;;;;;;;1.58;1.15;;;;;;;20.38;49.88;99245.59;4183308;28;20257;-61
2022/08/10 00:54:21;;;;;;;1.65;1.27;;;;;;;20.34;50.12;99244.50;4166573;28;20212;-61
2022/08/10 00:56:26;;;;;;;8.63;1.50;;;;;;;20.33;49.86;99248.41;4183070;28;20211;-61
2022/08/10 00:58:47;;;;;;;1.25;1.17;;;;;;;20.30;49.99;99249.84;4193001;28;20723;-61
2022/08/10 01:00:49;;;;;;;2.80;1.98;;;;;;;20.29;50.05;99247.34;4180364;28;20199;-61
2022/08/10 01:03:00;;;;;;;2.38;1.38;;;;;;;20.29;50.18;99247.34;4180554;28;20223;-61
2022/08/10 01:05:07;;;;;;;1.90;1.45;;;;;;;20.25;50.29;99247.09;4179401;28;20665;-61
2022/08/10 01:07:24;;;;;;;1.95;1.20;;;;;;;20.18;50.78;99245.81;4186360;28;20203;-61
2022/08/10 01:09:44;;;;;;;1.13;1.02;;;;;;;20.16;50.76;99242.47;4187058;28;20203;-61
2022/08/10 01:12:13;;;;;;;1.88;1.27;;;;;;;20.05;51.11;99240.91;4194757;28;20219;-61
2022/08/10 01:14:38;;;;;;;1.50;1.20;;;;;;;19.97;51.38;99247.13;4183398;28;20241;-61
2022/08/10 01:16:49;;;;;;;1.73;1.13;;;;;;;19.88;51.46;99246.06;4184797;28;20322;-61
2022/08/10 01:18:56;;;;;;;2.78;1.20;;;;;;;19.82;51.66;99250.03;4170989;28;20374;-61
2022/08/10 01:21:04;;;;;;;1.40;1.30;;;;;;;19.76;51.80;99249.25;4181931;28;20195;-61
2022/08/10 01:23:44;;;;;;;2.40;1.20;;;;;;;19.75;51.89;99243.97;4186535;28;20225;-61
2022/08/10 01:26:04;;;;;;;1.42;1.30;;;;;;;19.73;51.88;99237.91;4174452;28;20246;-61
2022/08/10 01:28:38;;;;;;;1.00;1.00;;;;;;;19.67;52.15;99241.84;4185456;28;20672;-61
2022/08/10 01:30:40;;;;;;;1.75;1.40;;;;;;;19.63;51.98;99249.06;4185731;28;20234;-61
2022/08/10 01:32:53;;;;;;;2.85;1.30;;;;;;;19.62;52.13;99252.97;4201618;28;20223;-60
2022/08/10 01:35:02;;;;;;;1.98;1.20;;;;;;;19.62;52.11;99247.41;4187573;28;20208;-61
2022/08/10 01:37:07;;;;;;;2.45;1.13;;;;;;;19.61;52.24;99251.31;4184213;28;20203;-60
2022/08/10 01:39:11;;;;;;;1.40;1.30;;;;;;;19.53;52.34;99244.47;4198252;28;20215;-61
2022/08/10 01:41:13;;;;;;;1.48;1.38;;;;;;;19.49;52.63;99248.09;4200645;28;20228;-61
2022/08/10 01:43:16;;;;;;;6.13;1.67;;;;;;;19.44;52.90;99246.19;4182124;28;20309;-61
2022/08/10 01:45:19;;;;;;;1.52;1.27;;;;;;;19.38;52.57;99241.78;4169292;28;20204;-61
2022/08/10 01:49:59;;;;;;;1.88;1.73;;;;;;;19.30;52.73;99242.41;4184874;28;20266;-61
2022/08/10 01:52:02;;;;;;;2.38;1.80;;;;;;;19.29;53.08;99253.78;4174808;28;20265;-60
2022/08/10 01:54:06;;;;;;;1.60;1.40;;;;;;;19.27;53.06;99247.72;4186981;28;20216;-61
2022/08/10 01:56:14;;;;;;;2.00;1.63;;;;;;;19.25;52.90;99255.50;4186024;28;20204;-61
2022/08/10 01:58:17;;;;;;;3.00;1.35;;;;;;;19.23;52.68;99246.59;4174301;28;20231;-61
2022/08/10 02:00:19;;;;;;;2.15;1.50;;;;;;;19.22;52.54;99247.72;4182206;28;20224;-61
2022/08/10 02:02:21;;;;;;;4.00;1.45;;;;;;;19.20;52.53;99244.44;4180726;28;20227;-61
2022/08/10 02:04:24;;;;;;;6.47;1.42;;;;;;;19.19;52.60;99248.28;4184838;28;20464;-61
2022/08/10 02:06:29;;;;;;;1.83;1.33;;;;;;;19.17;52.50;99247.75;4184036;28;20204;-61
2022/08/10 02:08:31;;;;;;;2.80;1.40;;;;;;;19.16;52.41;99248.84;4179706;28;20274;-61
2022/08/10 02:10:34;;;;;;;2.17;1.30;;;;;;;19.14;52.38;99254.72;4169288;28;20318;-61
2022/08/10 02:12:37;;;;;;;7.00;1.55;;;;;;;19.13;52.41;99255.78;4184846;28;20223;-61
2022/08/10 02:14:43;;;;;;;3.50;1.33;;;;;;;19.14;52.29;99253.88;4183916;28;20222;-61
2022/08/10 02:16:49;;;;;;;2.75;1.20;;;;;;;19.11;52.45;99262.78;4190392;28;20234;-61
2022/08/10 02:18:52;;;;;;;1.90;1.50;;;;;;;19.09;52.54;99263.06;4181873;28;20203;-61
2022/08/10 02:20:54;;;;;;;1.48;1.38;;;;;;;19.06;52.24;99260.03;4173908;28;20204;-62
2022/08/10 02:22:59;;;;;;;1.67;1.58;;;;;;;19.01;52.48;99257.28;4185993;28;20330;-60
2022/08/10 02:25:02;;;;;;;1.95;1.67;;;;;;;18.96;52.47;99265.63;4170325;28;20199;-61
2022/08/10 02:27:04;;;;;;;1.30;1.20;;;;;;;18.89;52.76;99260.41;4190287;28;20204;-61
2022/08/10 02:29:07;;;;;;;7.75;1.70;;;;;;;18.88;53.14;99263.44;4167511;28;20238;-61
2022/08/10 02:31:14;;;;;;;1.55;1.20;;;;;;;18.84;53.12;99263.19;4188210;28;20230;-61
2022/08/10 02:33:17;;;;;;;4.65;1.80;;;;;;;18.80;53.34;99255.72;4183373;28;20227;-60
2022/08/10 02:35:20;;;;;;;3.53;1.33;;;;;;;18.78;53.43;99260.75;4168727;28;20204;-61
2022/08/10 02:37:26;;;;;;;1.30;1.17;;;;;;;18.77;53.51;99268.22;4181852;28;20306;-61
2022/08/10 02:39:28;;;;;;;1.65;1.42;;;;;;;18.72;53.58;99262.69;4189877;28;20281;-61
2022/08/10 02:41:39;;;;;;;3.63;1.40;;;;;;;18.69;53.59;99265.19;4186680;28;20207;-61
2022/08/10 02:44:12;;;;;;;1.70;1.60;;;;;;;18.66;53.49;99260.25;4184005;28;20279;-61
2022/08/10 02:46:41;;;;;;;2.30;1.52;;;;;;;18.61;53.47;99269.41;4182424;28;20203;-61
2022/08/10 02:48:45;;;;;;;2.92;1.50;;;;;;;18.60;53.68;99273.31;4181115;28;20704;-61
2022/08/10 02:50:53;;;;;;;2.28;1.38;;;;;;;18.56;53.47;99268.59;4174382;28;20320;-61
2022/08/10 02:53:07;;;;;;;2.80;1.38;;;;;;;18.56;53.56;99274.13;4179947;28;20258;-61
2022/08/10 02:55:37;;;;;;;1.70;1.60;;;;;;;18.54;53.54;99273.59;4185139;28;20290;-61
2022/08/10 02:57:39;;;;;;;1.33;1.23;;;;;;;18.47;53.85;99270.28;4187528;28;20206;-61
2022/08/10 03:00:06;;;;;;;3.28;1.42;;;;;;;18.45;53.68;99269.75;4182897;28;20257;-61
2022/08/10 03:02:12;;;;;;;1.88;1.40;;;;;;;18.45;53.76;99275.28;4167180;28;20220;-61
2022/08/10 03:04:18;;;;;;;1.67;1.58;;;;;;;18.42;54.04;99270.31;4168890;28;20208;-61
2022/08/10 03:06:42;;;;;;;2.88;1.77;;;;;;;18.36;54.08;99266.72;4188450;28;20239;-61
2022/08/10 03:08:45;;;;;;;4.55;1.65;;;;;;;18.36;54.03;99260.34;4189270;28;20203;-61
2022/08/10 03:10:48;;;;;;;2.17;1.45;;;;;;;18.31;54.20;99274.25;4171762;28;20285;-61
2022/08/10 03:12:57;;;;;;;1.65;1.17;;;;;;;18.25;54.40;99267.00;4185329;28;20224;-61
2022/08/10 03:14:59;;;;;;;2.10;1.40;;;;;;;18.23;54.39;99266.44;4180927;28;20223;-61
2022/08/10 03:17:02;;;;;;;1.30;1.20;;;;;;;18.19;54.41;99273.69;4174023;28;20266;-61
2022/08/10 03:19:05;;;;;;;1.75;1.30;;;;;;;18.16;54.41;99277.00;4183235;28;20246;-61
2022/08/10 03:21:28;;;;;;;1.35;1.25;;;;;;;18.15;54.59;99272.56;4173369;28;20255;-61
2022/08/10 03:23:30;;;;;;;1.83;1.58;;;;;;;18.13;54.64;99272.03;4182116;28;20960;-61
2022/08/10 03:25:32;;;;;;;3.70;1.50;;;;;;;18.11;54.69;99282.56;4171374;28;20236;-61
2022/08/10 03:27:34;;;;;;;2.25;1.88;;;;;;;18.05;54.80;99283.69;4173002;28;20262;-61
2022/08/10 03:29:36;;;;;;;1.88;1.77;;;;;;;18.01;55.34;99274.25;4166379;28;20208;-60
2022/08/10 03:31:58;;;;;;;2.67;1.65;;;;;;;17.94;55.91;99277.31;4182636;28;20223;-61
2022/08/10 03:34:01;;;;;;;3.97;2.30;;;;;;;17.89;55.74;99282.88;4181451;28;20660;-61
2022/08/10 03:36:20;;;;;;;1.73;1.48;;;;;;;17.91;55.74;99279.81;4175447;28;20208;-61
2022/08/10 03:38:44;;;;;;;2.00;1.70;;;;;;;17.90;55.33;99283.69;4183046;28;20216;-61
2022/08/10 03:40:46;;;;;;;2.60;2.10;;;;;;;17.90;55.44;99283.69;4185031;28;20589;-60
2022/08/10 03:42:49;;;;;;;1.58;1.48;;;;;;;17.90;55.45;99280.91;4171358;28;20630;-60
2022/08/10 03:44:51;;;;;;;2.95;1.65;;;;;;;17.89;55.26;99276.47;4188486;28;20770;-60
2022/08/10 03:46:54;;;;;;;1.95;1.73;;;;;;;17.89;54.93;99282.03;4180228;28;20334;-62
2022/08/10 03:48:58;;;;;;;2.13;1.70;;;;;;;17.84;55.02;99279.28;4169421;28;20302;-61
2022/08/10 03:51:01;;;;;;;2.30;1.52;;;;;;;17.85;54.75;99286.47;4168337;28;20223;-61
2022/08/10 03:53:03;;;;;;;1.85;1.50;;;;;;;17.84;54.90;99284.81;4187644;28;20717;-61
2022/08/10 03:55:05;;;;;;;2.35;1.58;;;;;;;17.83;55.08;99285.91;4187375;28;20200;-62
2022/08/10 03:57:07;;;;;;;4.10;1.55;;;;;;;17.82;55.11;99287.00;4171120;28;20288;-61
2022/08/10 03:59:15;;;;;;;2.58;1.63;;;;;;;17.80;55.08;99286.47;4188305;28;20218;-61
2022/08/10 04:01:20;;;;;;;1.45;1.33;;;;;;;17.74;55.22;99302.25;4181240;28;20195;-61
2022/08/10 04:03:41;;;;;;;2.10;1.70;;;;;;;17.76;55.23;99299.19;4182475;28;20207;-62
2022/08/10 04:05:43;;;;;;;1.60;1.40;;;;;;;17.75;55.39;99298.38;4181940;28;20547;-61
2022/08/10 04:07:45;;;;;;;2.13;1.48;;;;;;;17.74;55.31;99301.41;4185953;28;20235;-61
2022/08/10 04:09:47;;;;;;;9.23;2.05;;;;;;;17.71;55.42;99299.22;4184515;28;20212;-61
2022/08/10 04:11:56;;;;;;;2.80;1.70;;;;;;;17.64;55.43;99296.72;4182557;28;20231;-61
2022/08/10 04:13:58;;;;;;;1.60;1.50;;;;;;;17.62;55.42;99304.47;4184898;28;20200;-61
2022/08/10 04:16:00;;;;;;;2.28;2.08;;;;;;;17.62;55.38;99306.41;4164678;28;20201;-61
2022/08/10 04:18:07;;;;;;;1.85;1.63;;;;;;;17.61;55.46;99300.03;4173050;28;20215;-61
2022/08/10 04:20:16;;;;;;;1.73;1.63;;;;;;;17.59;55.57;99302.22;4182019;28;20257;-61
2022/08/10 04:22:20;;;;;;;1.98;1.38;;;;;;;17.57;55.71;99303.63;4188587;28;20356;-61
2022/08/10 04:24:24;;;;;;;4.22;1.63;;;;;;;17.53;55.79;99300.56;4177891;28;20690;-61
2022/08/10 04:26:33;;;;;;;2.55;1.63;;;;;;;17.52;55.81;99303.63;4166882;28;20326;-61
2022/08/10 04:28:35;;;;;;;1.92;1.73;;;;;;;17.47;55.99;99306.38;4185159;28;20574;-61
2022/08/10 04:30:37;;;;;;;6.55;2.17;;;;;;;17.59;55.72;99315.25;4183476;28;20221;-62
2022/08/10 04:32:40;;;;;;;3.88;1.85;;;;;;;17.57;55.61;99306.38;4165369;28;20220;-61
2022/08/10 04:34:43;;;;;;;10.73;2.53;;;;;;;17.58;55.44;99308.06;4181600;28;20253;-62
2022/08/10 04:36:49;;;;;;;3.28;2.22;;;;;;;17.56;55.80;99313.03;4186347;28;20207;-61
2022/08/10 04:38:51;;;;;;;8.18;2.65;;;;;;;17.55;55.95;99308.59;4185067;28;20264;-61
2022/08/10 04:40:54;;;;;;;14.00;2.25;;;;;;;17.51;55.66;99302.78;4185825;28;20266;-61
2022/08/10 04:42:58;;;;;;;5.47;2.22;;;;;;;17.52;55.58;99314.72;4187668;28;20224;-61
2022/08/10 04:45:10;;;;;;;5.03;2.83;;;;;;;17.51;55.58;99304.75;4167563;28;20211;-61
2022/08/10 04:47:12;;;;;;;2.45;1.50;;;;;;;17.48;55.66;99308.06;4165787;28;20220;-61
2022/08/10 04:49:17;;;;;;;7.57;2.35;;;;;;;17.50;56.04;99308.59;4178538;28;20260;-62
2022/08/10 04:51:39;;;;;;;2.40;1.73;;;;;;;17.48;55.81;99308.06;4184129;28;20265;-61
2022/08/10 04:53:41;;;;;;;2.00;1.58;;;;;;;17.49;55.79;99306.94;4184804;28;21132;-61
2022/08/10 04:56:02;;;;;;;7.13;2.40;;;;;;;17.48;56.10;99302.50;4184018;28;20704;-61
2022/08/10 04:58:04;;;;;;;3.33;2.28;;;;;;;17.48;56.22;99299.75;4186778;28;20764;-61
2022/08/10 05:00:07;;;;;;;3.28;1.95;;;;;;;17.49;56.29;99304.16;4183599;28;20203;-62
2022/08/10 05:02:19;;;;;;;4.28;2.05;;;;;;;17.50;56.46;99308.59;4185384;28;20310;-62
2022/08/10 05:04:39;;;;;;;5.43;1.60;;;;;;;17.49;56.46;99309.72;4184955;28;20207;-61
2022/08/10 05:06:40;;;;;;;2.60;1.60;;;;;;;17.48;56.66;99296.97;4169262;28;20216;-61
2022/08/10 05:08:42;;;;;;;6.90;1.85;;;;;;;17.49;56.85;99298.63;4183967;28;20808;-61
2022/08/10 05:10:44;;;;;;;5.03;1.70;;;;;;;17.52;56.92;99303.63;4187116;28;20200;-61
2022/08/10 05:12:46;;;;;;;3.55;2.42;;;;;;;17.55;57.05;99303.06;4186522;28;20224;-61
2022/08/10 05:14:47;;;;;;;6.38;2.38;;;;;;;17.58;56.98;99306.13;4188702;28;20204;-61
2022/08/10 05:16:49;;;;;;;17.05;3.05;;;;;;;17.61;57.10;99297.28;4186318;28;20565;-62
2022/08/10 05:18:51;;;;;;;10.88;2.13;;;;;;;17.65;57.14;99303.09;4187334;28;20220;-61
2022/08/10 05:20:53;;;;;;;8.55;2.22;;;;;;;17.68;57.14;99311.66;4187424;28;20857;-62
2022/08/10 05:22:54;;;;;;;7.68;2.33;;;;;;;17.73;57.23;99321.91;4188063;28;20357;-61
2022/08/10 05:24:56;;;;;;;6.72;4.47;;;;;;;17.79;57.01;99315.28;4167502;28;20196;-62
2022/08/10 05:26:58;;;;;;;6.53;2.38;;;;;;;17.86;57.68;99318.59;4189308;28;20203;-61
2022/08/10 05:29:10;;;;;;;5.72;1.52;;;;;;;17.87;57.43;99312.78;4191983;28;20206;-62
2022/08/10 05:31:12;;;;;;;3.85;2.15;;;;;;;17.95;57.29;99322.44;4186432;28;20677;-60
2022/08/10 05:33:23;;;;;;;5.63;2.40;;;;;;;18.01;57.01;99316.66;4190698;28;20318;-61
2022/08/10 05:35:25;;;;;;;5.93;2.22;;;;;;;18.12;56.71;99320.22;4184337;28;20589;-61
2022/08/10 05:37:28;;;;;;;4.75;2.15;;;;;;;18.21;56.27;99324.09;4192007;28;20211;-61
2022/08/10 05:39:50;;;;;;;16.17;2.05;;;;;;;18.40;55.97;99316.88;4179101;28;20203;-61
2022/08/10 05:41:53;;;;;;;2.13;1.52;;;;;;;18.47;55.72;99325.72;4191193;28;20196;-61
2022/08/10 05:43:56;;;;;;;5.65;2.30;;;;;;;18.58;55.80;99324.59;4177888;28;20216;-62
2022/08/10 05:45:57;;;;;;;2.17;1.70;;;;;;;18.58;55.56;99319.88;4193173;28;20211;-61
2022/08/10 05:48:20;;;;;;;4.05;1.85;;;;;;;18.99;56.10;99326.09;4176623;28;20207;-60
2022/08/10 05:50:42;;;;;;;3.42;1.88;;;;;;;19.20;54.90;99330.47;4177531;28;20266;-61
2022/08/10 05:52:44;;;;;;;6.32;1.92;;;;;;;19.28;54.64;99335.41;4188104;28;20281;-61
2022/08/10 05:54:46;;;;;;;4.65;1.70;;;;;;;19.45;54.37;99331.13;4170068;28;20208;-61
2022/08/10 05:56:49;;;;;;;2.55;2.17;;;;;;;19.67;55.08;99325.16;4173173;28;20239;-61
2022/08/10 05:58:58;;;;;;;5.00;1.63;;;;;;;19.80;54.24;99339.22;4173400;28;20266;-61
2022/08/10 06:01:01;;;;;;;3.53;2.00;;;;;;;19.94;54.17;99333.81;4185034;28;20211;-60
2022/08/10 06:03:04;;;;;;;4.13;1.73;;;;;;;20.08;53.82;99337.63;4191544;28;20224;-61
2022/08/10 06:05:08;;;;;;;3.05;1.98;;;;;;;20.20;52.81;99333.34;4186021;28;20627;-60
2022/08/10 06:07:11;;;;;;;5.22;2.00;;;;;;;20.38;53.64;99340.13;4183980;28;20199;-60
2022/08/10 06:09:15;;;;;;;2.78;1.50;;;;;;;20.51;52.67;99345.00;4174562;28;20287;-60
2022/08/10 06:11:17;;;;;;;4.20;1.58;;;;;;;20.69;52.39;99335.88;4170906;28;20195;-61
2022/08/10 06:16:18;;;;;;;2.03;1.48;;;;;;;21.08;52.05;99344.91;4187081;28;20207;-61
2022/08/10 06:18:20;;;;;;;3.42;1.95;;;;;;;21.22;51.26;99346.66;4175200;28;20883;-61
2022/08/10 06:20:21;;;;;;;3.55;1.85;;;;;;;21.34;50.41;99344.28;4164683;28;20305;-62
2022/08/10 06:22:30;;;;;;;2.75;1.77;;;;;;;21.41;50.22;99349.47;4167593;28;20227;-61
2022/08/10 06:24:36;;;;;;;2.63;1.98;;;;;;;21.49;49.47;99346.00;4181595;28;20225;-61
2022/08/10 06:26:58;;;;;;;4.18;1.75;;;;;;;21.70;49.37;99347.41;4182270;28;20617;-61
2022/08/10 06:29:05;;;;;;;3.47;1.73;;;;;;;21.76;48.26;99347.03;4185987;28;20642;-61
2022/08/10 06:31:08;;;;;;;2.28;1.30;;;;;;;21.88;49.33;99349.34;4196352;28;20325;-61
2022/08/10 06:33:10;;;;;;;2.67;1.50;;;;;;;21.95;48.75;99341.41;4184800;28;20223;-61
2022/08/10 06:35:12;;;;;;;2.65;1.40;;;;;;;22.09;46.96;99345.09;4168290;28;20199;-61
2022/08/10 06:37:16;;;;;;;2.05;1.80;;;;;;;22.03;47.84;99349.13;4189681;28;20257;-61
2022/08/10 06:39:18;;;;;;;7.07;1.63;;;;;;;22.09;47.45;99342.28;4185709;28;20216;-61
2022/08/10 06:41:45;;;;;;;2.22;1.58;;;;;;;22.45;46.54;99337.78;4189193;28;20660;-61
2022/08/10 06:44:10;;;;;;;1.92;1.48;;;;;;;22.37;47.21;99342.06;4190682;28;20209;-61
2022/08/10 06:46:15;;;;;;;1.80;1.70;;;;;;;22.39;45.93;99333.41;4187499;28;20205;-60
2022/08/10 06:48:23;;;;;;;13.15;1.90;;;;;;;22.61;47.05;99336.38;4170615;28;20207;-60
2022/08/10 06:50:37;;;;;;;3.85;1.80;;;;;;;22.82;46.82;99337.63;4187188;28;20203;-60
2022/08/10 06:53:07;;;;;;;3.90;1.60;;;;;;;23.05;45.64;99334.63;4184609;28;20680;-60
2022/08/10 06:55:12;;;;;;;3.60;1.45;;;;;;;23.24;45.70;99340.13;4186175;28;20267;-60
2022/08/10 06:57:20;;;;;;;5.35;1.60;;;;;;;23.18;44.26;99342.19;4171629;28;20237;-60
2022/08/10 06:59:43;;;;;;;5.30;2.88;;;;;;;23.08;44.36;99341.56;4192004;28;20573;-60
2022/08/10 07:01:49;;;;;;;3.13;1.73;;;;;;;23.23;44.26;99332.91;4191033;28;20254;-60
2022/08/10 07:04:11;;;;;;;2.65;1.90;;;;;;;22.96;44.10;99338.47;4174448;28;20290;-61
2022/08/10 07:06:15;;;;;;;3.70;1.77;;;;;;;23.36;45.05;99338.44;4183794;28;20207;-61
2022/08/10 07:08:18;;;;;;;2.15;1.42;;;;;;;23.56;44.43;99337.19;4183736;28;20203;-60
2022/08/10 07:10:23;;;;;;;4.50;1.33;;;;;;;23.81;44.73;99335.41;4185841;28;20689;-60
2022/08/10 07:12:42;;;;;;;2.45;1.33;;;;;;;24.10;44.93;99337.81;4184253;28;20229;-60
2022/08/10 07:14:45;;;;;;;2.92;1.48;;;;;;;24.23;44.07;99340.56;4188047;28;20268;-61
2022/08/10 07:16:47;;;;;;;2.80;1.30;;;;;;;24.31;43.90;99339.78;4165916;28;20211;-60
2022/08/10 07:18:48;;;;;;;3.20;1.60;;;;;;;24.60;43.57;99337.34;4182289;28;20203;-60
2022/08/10 07:20:54;;;;;;;4.50;1.23;;;;;;;24.69;43.58;99335.44;4167350;28;20775;-60
2022/08/10 07:22:57;;;;;;;2.63;1.77;;;;;;;24.68;42.91;99327.34;4188834;28;20218;-60
2022/08/10 07:25:25;;;;;;;9.18;1.60;;;;;;;24.96;42.39;99335.22;4184273;28;20211;-59
2022/08/10 07:27:28;;;;;;;3.42;2.03;;;;;;;25.01;42.19;99339.84;4188665;28;20214;-59
2022/08/10 07:29:50;;;;;;;2.75;1.10;;;;;;;24.88;40.95;99338.81;4171880;28;20211;-60
2022/08/10 07:31:55;;;;;;;2.92;1.17;;;;;;;25.33;42.10;99342.31;4184264;28;20649;-60
2022/08/10 07:33:59;;;;;;;1.92;0.90;;;;;;;25.32;41.24;99344.25;4171846;28;20604;-60
2022/08/10 07:36:01;;;;;;;2.03;1.40;;;;;;;25.28;39.85;99340.47;4183988;28;20591;-61
2022/08/10 07:38:05;;;;;;;1.25;1.10;;;;;;;25.19;40.55;99339.56;4186371;28;20213;-61
2022/08/10 07:40:08;;;;;;;2.45;1.90;;;;;;;24.96;39.89;99340.84;4166136;28;20341;-60
2022/08/10 07:42:12;;;;;;;2.00;1.10;;;;;;;25.16;40.28;99343.03;4168834;28;20226;-61
2022/08/10 07:44:14;;;;;;;5.47;1.60;;;;;;;25.43;39.93;99351.22;4169688;28;20242;-60
2022/08/10 07:46:18;;;;;;;4.85;1.80;;;;;;;25.38;40.26;99348.56;4166902;28;20203;-60
2022/08/10 07:48:29;;;;;;;2.25;1.02;;;;;;;25.36;39.26;99348.09;4163707;28;20578;-61
2022/08/10 07:50:33;;;;;;;1.65;0.93;;;;;;;25.63;39.49;99350.59;4168286;28;20650;-61
2022/08/10 07:52:38;;;;;;;8.27;1.40;;;;;;;25.62;39.44;99348.97;4186587;28;20229;-59
2022/08/10 07:54:42;;;;;;;1.60;1.50;;;;;;;25.76;39.30;99349.63;4186144;28;20211;-62
2022/08/10 07:56:47;;;;;;;2.72;1.55;;;;;;;25.91;38.51;99351.97;4174991;28;20207;-60
2022/08/10 07:58:54;;;;;;;3.13;1.35;;;;;;;25.93;38.93;99348.84;4198154;28;20297;-60
2022/08/10 08:00:57;;;;;;;1.88;1.08;;;;;;;26.22;39.00;99352.63;4171778;28;20582;-60
2022/08/10 08:03:01;;;;;;;1.90;1.40;;;;;;;26.30;37.74;99354.59;4186046;28;20215;-61
2022/08/10 08:05:07;;;;;;;2.35;1.15;;;;;;;26.22;38.01;99349.81;4185811;28;20206;-60
2022/08/10 08:07:11;;;;;;;5.88;1.20;;;;;;;26.27;38.33;99358.03;4183272;28;20200;-60
2022/08/10 08:09:14;;;;;;;1.85;0.93;;;;;;;25.97;37.88;99359.06;4187297;28;20203;-60
2022/08/10 08:11:18;;;;;;;3.30;1.10;;;;;;;26.13;37.98;99348.97;4176389;28;20204;-60
2022/08/10 08:13:28;;;;;;;2.72;1.08;;;;;;;26.08;37.77;99346.38;4192839;28;20392;-60
2022/08/10 08:15:30;;;;;;;2.13;1.40;;;;;;;26.19;37.48;99356.09;4186899;28;20215;-60
2022/08/10 08:17:54;;;;;;;2.00;1.20;;;;;;;25.89;37.70;99347.84;4174181;28;20276;-60
2022/08/10 08:20:02;;;;;;;4.03;1.52;;;;;;;26.12;38.98;99347.34;4185728;28;20199;-59
2022/08/10 08:22:08;;;;;;;5.07;1.38;;;;;;;26.69;37.45;99340.34;4187292;28;20227;-60
2022/08/10 08:24:32;;;;;;;1.15;1.05;;;;;;;26.45;37.25;99348.44;4187695;28;20245;-60
2022/08/10 08:26:36;;;;;;;3.85;1.55;;;;;;;26.68;37.21;99349.94;4171000;28;20570;-60
2022/08/10 08:28:38;;;;;;;2.65;1.10;;;;;;;26.93;36.98;99351.78;4183211;28;20720;-60
2022/08/10 08:30:41;;;;;;;4.05;1.17;;;;;;;26.64;36.96;99354.56;4177323;28;20478;-60
2022/08/10 08:32:51;;;;;;;3.85;1.85;;;;;;;26.96;37.02;99339.91;4183278;28;20234;-59
2022/08/10 08:35:15;;;;;;;1.42;0.95;;;;;;;26.79;37.07;99339.94;4188941;28;20199;-61
2022/08/10 08:37:18;;;;;;;2.22;1.10;;;;;;;26.85;37.16;99335.81;4193801;28;20195;-60
2022/08/10 08:39:41;;;;;;;1.40;1.00;;;;;;;27.00;37.08;99335.25;4181768;28;20615;-59
2022/08/10 08:42:06;;;;;;;2.45;1.23;;;;;;;27.16;35.90;99353.22;4189337;28;20731;-61
2022/08/10 08:44:25;;;;;;;1.83;1.05;;;;;;;27.03;36.23;99334.59;4190098;28;20257;-59
2022/08/10 08:46:41;;;;;;;2.50;1.15;;;;;;;27.12;36.38;99338.16;4188309;28;20289;-60
2022/08/10 08:49:07;;;;;;;1.30;0.80;;;;;;;27.24;36.42;99341.13;4195450;28;20217;-59
2022/08/10 08:51:43;;;;;;;0.88;0.80;;;;;;;27.42;35.14;99337.03;4184902;28;20211;-60
2022/08/10 08:54:20;;;;;;;3.17;1.00;;;;;;;26.82;36.38;99333.69;4192296;28;20199;-59
2022/08/10 08:56:49;;;;;;;4.22;1.35;;;;;;;27.41;36.21;99332.59;4192412;28;20229;-59
2022/08/10 08:58:59;;;;;;;1.30;0.88;;;;;;;27.85;35.92;99326.34;4198171;28;20252;-59
2022/08/10 09:01:19;;;;;;;3.03;0.95;;;;;;;28.14;34.87;99337.53;4199817;28;20297;-59
2022/08/10 09:03:42;;;;;;;2.00;0.85;;;;;;;27.75;34.36;99329.53;4190013;28;20218;-60
2022/08/10 09:06:02;;;;;;;1.65;0.93;;;;;;;27.64;34.88;99327.44;4194794;28;20203;-59
2022/08/10 09:08:29;;;;;;;3.15;1.55;;;;;;;28.03;33.88;99330.66;4186792;28;20203;-59
2022/08/10 09:10:51;;;;;;;3.10;1.60;;;;;;;27.57;34.22;99330.81;4195247;28;20203;-60
2022/08/10 09:13:09;;;;;;;1.73;1.17;;;;;;;27.97;35.18;99332.03;4186548;28;20248;-59
2022/08/10 09:15:37;;;;;;;1.67;1.13;;;;;;;28.66;34.78;99320.94;4182096;28;20299;-59
2022/08/10 09:17:55;;;;;;;3.80;1.10;;;;;;;28.33;34.60;99320.09;4189689;28;20209;-59
2022/08/10 09:20:16;;;;;;;3.03;0.93;;;;;;;28.38;34.21;99317.91;4187737;28;20256;-59
2022/08/10 09:22:39;;;;;;;4.80;1.10;;;;;;;28.50;33.53;99323.59;4172403;28;20223;-59
2022/08/10 09:25:13;;;;;;;1.88;0.95;;;;;;;29.11;33.27;99319.72;4187795;28;20304;-59
2022/08/10 09:27:27;;;;;;;2.78;1.25;;;;;;;28.81;33.10;99314.63;4175597;28;20199;-59
2022/08/10 09:29:41;;;;;;;1.17;0.80;;;;;;;29.40;32.80;99313.03;4171091;28;20204;-59
2022/08/10 09:31:46;;;;;;;2.08;0.90;;;;;;;29.55;32.75;99320.78;4185122;28;20207;-59
2022/08/10 09:34:22;;;;;;;4.30;1.35;;;;;;;29.37;32.29;99310.91;4171542;28;20260;-59
2022/08/10 09:36:46;;;;;;;1.42;1.20;;;;;;;29.27;32.17;99309.41;4173510;28;20252;-59
2022/08/10 09:38:51;;;;;;;15.15;1.13;;;;;;;29.43;32.40;99312.31;4184369;28;20758;-60
2022/08/10 09:41:08;;;;;;;3.95;1.90;;;;;;;29.33;32.41;99312.78;4184901;28;20211;-59
2022/08/10 09:43:20;;;;;;;4.45;1.58;;;;;;;29.41;31.55;99315.50;4183996;28;20222;-59
2022/08/10 09:45:52;;;;;;;1.30;1.10;;;;;;;29.77;31.55;99304.16;4182116;28;20207;-59
2022/08/10 09:48:05;;;;;;;5.57;1.50;;;;;;;30.12;30.98;99308.06;4169691;28;20208;-59
2022/08/10 09:50:32;;;;;;;2.03;1.15;;;;;;;29.15;30.73;99309.41;4202942;28;20619;-59
2022/08/10 09:53:31;;;;;;;1.83;0.90;;;;;;;29.20;31.56;99308.34;4199319;28;20288;-60
2022/08/10 09:55:51;;;;;;;1.55;1.00;;;;;;;29.42;31.38;99311.50;4200546;28;20206;-59
2022/08/10 09:58:45;;;;;;;2.97;1.17;;;;;;;29.32;31.96;99305.50;4182546;28;20207;-59
2022/08/10 10:00:57;;;;;;;1.60;1.25;;;;;;;29.13;31.52;99303.28;4186343;28;20826;-59
2022/08/10 10:03:13;;;;;;;2.95;1.70;;;;;;;29.28;30.98;99302.59;4174607;28;20230;-59
2022/08/10 10:05:33;;;;;;;11.55;1.38;;;;;;;29.70;30.51;99305.94;4168724;28;20261;-59
2022/08/10 10:07:39;;;;;;;1.35;0.90;;;;;;;29.03;31.07;99291.63;4167262;28;20596;-60
2022/08/10 10:10:02;;;;;;;4.03;0.98;;;;;;;29.26;31.61;99298.47;4170042;28;20207;-60
2022/08/10 10:12:30;;;;;;;2.28;1.00;;;;;;;29.00;31.06;99275.44;4186869;28;20222;-59
2022/08/10 10:17:55;;;;;;;4.68;0.90;;;;;;;29.30;31.50;99286.13;4183998;28;20210;-60